createdAt,value
2023-04-20T00:00:45.721Z,22.54
2023-04-20T00:01:45.817Z,22.54
2023-04-20T00:02:45.921Z,22.53
2023-04-20T00:03:45.899Z,22.52
2023-04-20T00:04:45.943Z,22.53
2023-04-20T00:05:45.962Z,22.53
2023-04-20T00:06:45.966Z,22.53
2023-04-20T00:07:45.996Z,22.52
2023-04-20T00:08:46.065Z,22.53
2023-04-20T00:09:46.109Z,22.52
2023-04-20T00:10:46.148Z,22.52
2023-04-20T00:11:46.153Z,22.52
2023-04-20T00:12:46.189Z,22.52
2023-04-20T00:13:46.216Z,22.52
2023-04-20T00:14:46.267Z,22.52
2023-04-20T00:15:46.272Z,22.52
2023-04-20T00:16:46.345Z,22.52
2023-04-20T00:17:46.394Z,22.51
2023-04-20T00:18:46.322Z,22.51
2023-04-20T00:19:46.318Z,22.51
2023-04-20T00:20:46.318Z,22.50
2023-04-20T00:21:46.334Z,22.50
2023-04-20T00:22:46.454Z,22.50
2023-04-20T00:23:46.395Z,22.50
2023-04-20T00:24:46.379Z,22.49
2023-04-20T00:25:46.390Z,22.50
2023-04-20T00:26:46.451Z,22.49
2023-04-20T00:27:46.470Z,22.49
2023-04-20T00:28:46.502Z,22.49
2023-04-20T00:29:46.547Z,22.48
2023-04-20T00:30:46.572Z,22.49
2023-04-20T00:31:46.515Z,22.48
2023-04-20T00:32:46.615Z,22.49
2023-04-20T00:33:46.591Z,22.49
2023-04-20T00:34:46.614Z,22.48
2023-04-20T00:35:46.620Z,22.48
2023-04-20T00:36:46.609Z,22.48
2023-04-20T00:37:46.598Z,22.48
2023-04-20T00:38:46.619Z,22.47
2023-04-20T00:39:46.623Z,22.47
2023-04-20T00:40:46.657Z,22.48
2023-04-20T00:41:46.648Z,22.47
2023-04-20T00:42:46.656Z,22.47
2023-04-20T00:43:46.659Z,22.47
2023-04-20T00:44:46.673Z,22.47
2023-04-20T00:45:46.648Z,22.46
2023-04-20T00:46:46.740Z,22.46
2023-04-20T00:47:46.685Z,22.46
2023-04-20T00:48:46.686Z,22.46
2023-04-20T00:49:46.709Z,22.45
2023-04-20T00:50:46.758Z,22.45
2023-04-20T00:51:46.723Z,22.45
2023-04-20T00:52:46.730Z,22.45
2023-04-20T00:53:46.738Z,22.46
2023-04-20T00:54:46.700Z,22.45
2023-04-20T00:55:46.752Z,22.46
2023-04-20T00:56:46.711Z,22.46
2023-04-20T00:57:46.705Z,22.45
2023-04-20T00:58:46.736Z,22.45
2023-04-20T00:59:46.713Z,22.45
2023-04-20T01:00:46.708Z,22.45
2023-04-20T01:01:46.705Z,22.44
2023-04-20T01:02:46.811Z,22.44
2023-04-20T01:03:46.944Z,22.44
2023-04-20T01:04:46.659Z,22.44
2023-04-20T01:05:46.676Z,22.44
2023-04-20T01:06:46.671Z,22.44
2023-04-20T01:07:46.649Z,22.44
2023-04-20T01:08:46.700Z,22.43
2023-04-20T01:09:46.684Z,22.43
2023-04-20T01:10:46.685Z,22.43
2023-04-20T01:11:46.697Z,22.43
2023-04-20T01:12:46.668Z,22.43
2023-04-20T01:13:46.637Z,22.43
2023-04-20T01:14:46.625Z,22.42
2023-04-20T01:15:46.711Z,22.42
2023-04-20T01:16:46.641Z,22.43
2023-04-20T01:17:46.767Z,22.42
2023-04-20T01:18:46.745Z,22.42
2023-04-20T01:19:46.641Z,22.42
2023-04-20T01:20:46.632Z,22.42
2023-04-20T01:21:46.610Z,22.41
2023-04-20T01:22:46.610Z,22.41
2023-04-20T01:23:46.636Z,22.41
2023-04-20T01:24:46.612Z,22.41
2023-04-20T01:25:46.658Z,22.41
2023-04-20T01:26:46.604Z,22.40
2023-04-20T01:27:46.613Z,22.41
2023-04-20T01:28:46.674Z,22.41
2023-04-20T01:29:46.610Z,22.41
2023-04-20T01:30:46.600Z,22.41
2023-04-20T01:31:46.626Z,22.40
2023-04-20T01:32:46.643Z,22.41
2023-04-20T01:33:46.584Z,22.40
2023-04-20T01:34:46.552Z,22.40
2023-04-20T01:35:46.575Z,22.40
2023-04-20T01:36:46.596Z,22.40
2023-04-20T01:37:46.601Z,22.40
2023-04-20T01:38:46.564Z,22.39
2023-04-20T01:39:46.553Z,22.39
2023-04-20T01:40:46.564Z,22.39
2023-04-20T01:41:46.556Z,22.39
2023-04-20T01:42:47.086Z,22.39
2023-04-20T01:43:46.536Z,22.39
2023-04-20T01:44:46.553Z,22.39
2023-04-20T01:45:46.523Z,22.39
2023-04-20T01:46:46.560Z,22.38
2023-04-20T01:47:46.559Z,22.39
2023-04-20T01:48:46.533Z,22.38
2023-04-20T01:49:46.512Z,22.38
2023-04-20T01:50:46.519Z,22.38
2023-04-20T01:51:46.519Z,22.38
2023-04-20T01:52:46.488Z,22.38
2023-04-20T01:53:46.500Z,22.38
2023-04-20T01:54:46.467Z,22.38
2023-04-20T01:55:46.480Z,22.38
2023-04-20T01:56:46.459Z,22.37
2023-04-20T01:57:46.441Z,22.37
2023-04-20T01:58:46.458Z,22.37
2023-04-20T01:59:46.465Z,22.37
2023-04-20T02:00:46.511Z,22.36
2023-04-20T02:01:46.508Z,22.37
2023-04-20T02:02:46.580Z,22.36
2023-04-20T02:03:46.629Z,22.36
2023-04-20T02:04:46.442Z,22.36
2023-04-20T02:05:46.451Z,22.36
2023-04-20T02:06:46.488Z,22.36
2023-04-20T02:07:46.476Z,22.35
2023-04-20T02:08:46.449Z,22.36
2023-04-20T02:09:46.430Z,22.35
2023-04-20T02:10:46.449Z,22.35
2023-04-20T02:11:46.448Z,22.35
2023-04-20T02:12:46.411Z,22.35
2023-04-20T02:13:46.462Z,22.34
2023-04-20T02:14:46.393Z,22.35
2023-04-20T02:15:46.404Z,22.35
2023-04-20T02:16:46.462Z,22.35
2023-04-20T02:17:46.439Z,22.35
2023-04-20T02:18:46.458Z,22.34
2023-04-20T02:19:46.428Z,22.34
2023-04-20T02:20:46.429Z,22.34
2023-04-20T02:21:46.404Z,22.34
2023-04-20T02:22:46.438Z,22.33
2023-04-20T02:23:46.401Z,22.34
2023-04-20T02:24:46.405Z,22.34
2023-04-20T02:25:46.452Z,22.34
2023-04-20T02:26:46.449Z,22.34
2023-04-20T02:27:46.433Z,22.34
2023-04-20T02:28:46.413Z,22.33
2023-04-20T02:29:46.415Z,22.33
2023-04-20T02:30:46.447Z,22.33
2023-04-20T02:31:46.551Z,22.33
2023-04-20T02:32:46.488Z,22.32
2023-04-20T02:33:46.406Z,22.33
2023-04-20T02:34:46.423Z,22.33
2023-04-20T02:35:46.425Z,22.33
2023-04-20T02:36:46.436Z,22.32
2023-04-20T02:37:46.510Z,22.32
2023-04-20T02:38:46.413Z,22.32
2023-04-20T02:39:46.454Z,22.32
2023-04-20T02:40:46.449Z,22.31
2023-04-20T02:41:46.440Z,22.31
2023-04-20T02:42:46.445Z,22.31
2023-04-20T02:43:46.460Z,22.31
2023-04-20T02:44:46.412Z,22.31
2023-04-20T02:45:46.456Z,22.31
2023-04-20T02:46:46.540Z,22.30
2023-04-20T02:47:46.461Z,22.30
2023-04-20T02:48:46.478Z,22.30
2023-04-20T02:49:46.493Z,22.31
2023-04-20T02:50:46.520Z,22.30
2023-04-20T02:51:46.466Z,22.30
2023-04-20T02:52:46.506Z,22.30
2023-04-20T02:53:46.472Z,22.30
2023-04-20T02:54:46.504Z,22.30
2023-04-20T02:55:46.522Z,22.29
2023-04-20T02:56:46.474Z,22.30
2023-04-20T02:57:46.497Z,22.29
2023-04-20T02:58:46.535Z,22.29
2023-04-20T02:59:46.496Z,22.29
2023-04-20T03:00:46.535Z,22.28
2023-04-20T03:01:46.569Z,22.29
2023-04-20T03:02:46.625Z,22.28
2023-04-20T03:03:46.845Z,22.28
2023-04-20T03:04:46.676Z,22.28
2023-04-20T03:05:46.589Z,22.28
2023-04-20T03:06:46.609Z,22.28
2023-04-20T03:07:46.581Z,22.28
2023-04-20T03:08:46.599Z,22.28
2023-04-20T03:09:46.614Z,22.28
2023-04-20T03:10:46.580Z,22.28
2023-04-20T03:11:46.623Z,22.27
2023-04-20T03:12:46.636Z,22.28
2023-04-20T03:13:46.626Z,22.27
2023-04-20T03:14:46.640Z,22.26
2023-04-20T03:15:46.647Z,22.26
2023-04-20T03:16:46.688Z,22.26
2023-04-20T03:17:46.699Z,22.26
2023-04-20T03:18:46.673Z,22.26
2023-04-20T03:19:46.723Z,22.26
2023-04-20T03:20:46.664Z,22.26
2023-04-20T03:21:46.663Z,22.26
2023-04-20T03:22:46.699Z,22.26
2023-04-20T03:23:46.699Z,22.26
2023-04-20T03:24:46.726Z,22.25
2023-04-20T03:25:46.739Z,22.26
2023-04-20T03:26:46.772Z,22.25
2023-04-20T03:27:46.735Z,22.25
2023-04-20T03:28:46.725Z,22.25
2023-04-20T03:29:46.762Z,22.25
2023-04-20T03:30:46.812Z,22.24
2023-04-20T03:31:46.792Z,22.25
2023-04-20T03:32:46.899Z,22.25
2023-04-20T03:33:46.821Z,22.25
2023-04-20T03:34:46.805Z,22.25
2023-04-20T03:35:46.854Z,22.24
2023-04-20T03:36:46.821Z,22.24
2023-04-20T03:37:46.868Z,22.24
2023-04-20T03:38:46.868Z,22.24
2023-04-20T03:39:46.885Z,22.24
2023-04-20T03:40:46.895Z,22.24
2023-04-20T03:41:46.879Z,22.23
2023-04-20T03:42:46.904Z,22.23
2023-04-20T03:43:46.924Z,22.24
2023-04-20T03:44:46.910Z,22.23
2023-04-20T03:45:46.954Z,22.23
2023-04-20T03:46:46.975Z,22.23
2023-04-20T03:47:46.936Z,22.22
2023-04-20T03:48:46.953Z,22.23
2023-04-20T03:49:46.957Z,22.23
2023-04-20T03:50:46.965Z,22.22
2023-04-20T03:51:47.002Z,22.22
2023-04-20T03:52:46.998Z,22.23
2023-04-20T03:53:47.000Z,22.22
2023-04-20T03:54:47.010Z,22.22
2023-04-20T03:55:47.022Z,22.22
2023-04-20T03:56:47.021Z,22.22
2023-04-20T03:57:47.027Z,22.22
2023-04-20T03:58:47.047Z,22.22
2023-04-20T03:59:47.060Z,22.22
2023-04-20T04:00:47.102Z,22.21
2023-04-20T04:01:47.092Z,22.22
2023-04-20T04:02:47.309Z,22.22
2023-04-20T04:03:47.363Z,22.21
2023-04-20T04:04:47.240Z,22.21
2023-04-20T04:05:47.155Z,22.22
2023-04-20T04:06:47.120Z,22.21
2023-04-20T04:07:47.155Z,22.21
2023-04-20T04:08:47.194Z,22.20
2023-04-20T04:09:47.216Z,22.21
2023-04-20T04:10:47.184Z,22.20
2023-04-20T04:11:47.233Z,22.21
2023-04-20T04:12:47.221Z,22.20
2023-04-20T04:13:47.263Z,22.20
2023-04-20T04:14:47.248Z,22.19
2023-04-20T04:15:47.249Z,22.19
2023-04-20T04:16:47.330Z,22.20
2023-04-20T04:17:47.339Z,22.19
2023-04-20T04:18:47.311Z,22.19
2023-04-20T04:19:47.319Z,22.19
2023-04-20T04:20:47.331Z,22.18
2023-04-20T04:21:47.325Z,22.18
2023-04-20T04:22:47.381Z,22.19
2023-04-20T04:23:47.390Z,22.19
2023-04-20T04:24:47.389Z,22.18
2023-04-20T04:25:47.390Z,22.18
2023-04-20T04:26:47.426Z,22.18
2023-04-20T04:27:47.416Z,22.18
2023-04-20T04:28:47.463Z,22.18
2023-04-20T04:29:47.456Z,22.18
2023-04-20T04:30:47.509Z,22.17
2023-04-20T04:31:47.590Z,22.18
2023-04-20T04:32:47.508Z,22.18
2023-04-20T04:33:47.539Z,22.17
2023-04-20T04:34:47.483Z,22.17
2023-04-20T04:35:47.541Z,22.17
2023-04-20T04:36:47.548Z,22.17
2023-04-20T04:37:47.587Z,22.17
2023-04-20T04:38:47.594Z,22.17
2023-04-20T04:39:47.579Z,22.16
2023-04-20T04:40:47.607Z,22.17
2023-04-20T04:41:47.613Z,22.17
2023-04-20T04:42:47.619Z,22.17
2023-04-20T04:43:47.650Z,22.17
2023-04-20T04:44:47.673Z,22.16
2023-04-20T04:45:47.661Z,22.16
2023-04-20T04:46:47.899Z,22.16
2023-04-20T04:47:47.739Z,22.16
2023-04-20T04:48:47.747Z,22.16
2023-04-20T04:49:47.731Z,22.16
2023-04-20T04:50:47.776Z,22.15
2023-04-20T04:51:47.801Z,22.15
2023-04-20T04:52:47.822Z,22.16
2023-04-20T04:53:47.861Z,22.15
2023-04-20T04:54:47.836Z,22.15
2023-04-20T04:55:47.877Z,22.15
2023-04-20T04:56:47.881Z,22.15
2023-04-20T04:57:47.897Z,22.15
2023-04-20T04:58:47.980Z,22.15
2023-04-20T04:59:47.913Z,22.14
2023-04-20T05:00:47.955Z,22.15
2023-04-20T05:01:48.004Z,22.15
2023-04-20T05:02:48.079Z,22.15
2023-04-20T05:03:48.132Z,22.14
2023-04-20T05:04:48.185Z,22.14
2023-04-20T05:05:48.039Z,22.14
2023-04-20T05:06:48.053Z,22.15
2023-04-20T05:07:48.044Z,22.14
2023-04-20T05:08:48.061Z,22.14
2023-04-20T05:09:48.066Z,22.13
2023-04-20T05:10:48.096Z,22.14
2023-04-20T05:11:48.088Z,22.14
2023-04-20T05:12:48.126Z,22.14
2023-04-20T05:13:48.144Z,22.14
2023-04-20T05:14:48.177Z,22.14
2023-04-20T05:15:48.219Z,22.14
2023-04-20T05:16:48.222Z,22.13
2023-04-20T05:17:48.284Z,22.13
2023-04-20T05:18:48.251Z,22.14
2023-04-20T05:19:48.302Z,22.14
2023-04-20T05:20:48.296Z,22.14
2023-04-20T05:21:48.304Z,22.14
2023-04-20T05:22:48.337Z,22.14
2023-04-20T05:23:48.353Z,22.15
2023-04-20T05:24:48.379Z,22.14
2023-04-20T05:25:48.386Z,22.14
2023-04-20T05:26:48.397Z,22.15
2023-04-20T05:27:48.533Z,22.15
2023-04-20T05:28:48.478Z,22.15
2023-04-20T05:29:48.470Z,22.14
2023-04-20T05:30:48.475Z,22.15
2023-04-20T05:31:48.554Z,22.15
2023-04-20T05:32:50.940Z,22.14
2023-04-20T05:33:48.508Z,22.14
2023-04-20T05:34:48.489Z,22.14
2023-04-20T05:35:48.466Z,22.14
2023-04-20T05:36:48.478Z,22.14
2023-04-20T05:37:48.467Z,22.15
2023-04-20T05:38:48.700Z,22.14
2023-04-20T05:39:48.444Z,22.17
2023-04-20T05:40:49.279Z,22.22
2023-04-20T05:41:48.421Z,22.25
2023-04-20T05:42:48.418Z,22.28
2023-04-20T05:43:48.428Z,22.31
2023-04-20T05:44:48.396Z,22.34
2023-04-20T05:45:48.476Z,22.35
2023-04-20T05:46:48.375Z,22.38
2023-04-20T05:47:48.463Z,22.39
2023-04-20T05:48:48.731Z,22.41
2023-04-20T05:49:48.356Z,22.42
2023-04-20T05:50:48.366Z,22.45
2023-04-20T05:51:48.352Z,22.46
2023-04-20T05:52:48.354Z,22.47
2023-04-20T05:53:48.724Z,22.48
2023-04-20T05:54:48.319Z,22.51
2023-04-20T05:55:48.334Z,22.52
2023-04-20T05:56:48.337Z,22.57
2023-04-20T05:57:48.293Z,22.62
2023-04-20T05:58:48.734Z,22.69
2023-04-20T05:59:48.352Z,22.76
2023-04-20T06:00:48.401Z,22.82
2023-04-20T06:01:48.434Z,22.89
2023-04-20T06:02:48.540Z,22.94
2023-04-20T06:03:48.679Z,23.01
2023-04-20T06:04:48.583Z,23.06
2023-04-20T06:05:48.594Z,23.12
2023-04-20T06:06:48.623Z,23.17
2023-04-20T06:07:48.682Z,23.22
2023-04-20T06:08:48.668Z,23.25
2023-04-20T06:09:48.668Z,23.28
2023-04-20T06:10:48.731Z,23.31
2023-04-20T06:11:48.693Z,23.32
2023-04-20T06:12:48.709Z,23.33
2023-04-20T06:13:49.233Z,23.34
2023-04-20T06:14:48.738Z,23.36
2023-04-20T06:15:48.773Z,23.37
2023-04-20T06:16:48.745Z,23.39
2023-04-20T06:17:48.883Z,23.43
2023-04-20T06:18:48.723Z,23.43
2023-04-20T06:19:48.767Z,23.45
2023-04-20T06:20:48.736Z,23.47
2023-04-20T06:21:48.711Z,23.48
2023-04-20T06:22:48.743Z,23.50
2023-04-20T06:23:48.730Z,23.52
2023-04-20T06:24:48.720Z,23.54
2023-04-20T06:25:48.733Z,23.55
2023-04-20T06:26:48.749Z,23.58
2023-04-20T06:27:50.666Z,23.60
2023-04-20T06:28:48.755Z,23.62
2023-04-20T06:29:48.780Z,23.64
2023-04-20T06:30:48.742Z,23.66
2023-04-20T06:31:48.859Z,23.67
2023-04-20T06:32:48.803Z,23.67
2023-04-20T06:33:48.707Z,23.68
2023-04-20T06:34:48.729Z,23.71
2023-04-20T06:35:48.722Z,23.75
2023-04-20T06:36:48.720Z,23.77
2023-04-20T06:37:48.710Z,23.80
2023-04-20T06:38:48.724Z,23.82
2023-04-20T06:39:48.704Z,23.84
2023-04-20T06:40:48.858Z,23.87
2023-04-20T06:41:48.684Z,23.88
2023-04-20T06:42:48.640Z,23.89
2023-04-20T06:43:48.659Z,23.91
2023-04-20T06:44:48.656Z,23.93
2023-04-20T06:45:48.637Z,23.92
2023-04-20T06:46:48.645Z,23.91
2023-04-20T06:47:48.817Z,23.90
2023-04-20T06:48:48.753Z,23.89
2023-04-20T06:49:48.644Z,23.89
2023-04-20T06:50:48.627Z,23.86
2023-04-20T06:51:48.590Z,23.86
2023-04-20T06:52:48.628Z,23.86
2023-04-20T06:53:48.580Z,23.86
2023-04-20T06:54:48.597Z,23.86
2023-04-20T06:55:48.575Z,23.86
2023-04-20T06:56:48.566Z,23.83
2023-04-20T06:57:48.547Z,23.82
2023-04-20T06:58:48.820Z,23.83
2023-04-20T06:59:48.548Z,23.84
2023-04-20T07:00:48.624Z,23.84
2023-04-20T07:01:48.584Z,23.86
2023-04-20T07:02:48.624Z,23.86
2023-04-20T07:03:48.784Z,23.88
2023-04-20T07:04:48.557Z,23.89
2023-04-20T07:05:48.486Z,23.90
2023-04-20T07:06:48.524Z,23.92
2023-04-20T07:07:48.535Z,23.92
2023-04-20T07:08:48.574Z,23.94
2023-04-20T07:09:48.607Z,23.96
2023-04-20T07:10:48.695Z,23.97
2023-04-20T07:11:48.697Z,23.99
2023-04-20T07:12:48.736Z,24.00
2023-04-20T07:13:48.762Z,24.02
2023-04-20T07:14:48.783Z,24.03
2023-04-20T07:15:48.812Z,24.04
2023-04-20T07:16:48.914Z,24.06
2023-04-20T07:17:48.962Z,24.08
2023-04-20T07:18:48.888Z,24.09
2023-04-20T07:19:48.901Z,24.12
2023-04-20T07:20:48.936Z,24.14
2023-04-20T07:21:48.959Z,24.17
2023-04-20T07:22:48.978Z,24.19
2023-04-20T07:23:49.042Z,24.20
2023-04-20T07:24:49.052Z,24.23
2023-04-20T07:25:49.039Z,24.26
2023-04-20T07:26:49.105Z,24.27
2023-04-20T07:27:49.141Z,24.30
2023-04-20T07:28:49.177Z,24.30
2023-04-20T07:29:49.166Z,24.31
2023-04-20T07:30:49.183Z,24.33
2023-04-20T07:31:49.245Z,24.34
2023-04-20T07:32:49.332Z,24.35
2023-04-20T07:33:49.213Z,24.37
2023-04-20T07:34:49.236Z,24.37
2023-04-20T07:35:49.246Z,24.39
2023-04-20T07:36:49.258Z,24.40
2023-04-20T07:37:49.271Z,24.40
2023-04-20T07:38:50.269Z,24.41
2023-04-20T07:39:49.289Z,24.42
2023-04-20T07:40:49.311Z,24.43
2023-04-20T07:41:49.285Z,24.44
2023-04-20T07:42:49.336Z,24.42
2023-04-20T07:43:49.752Z,24.39
2023-04-20T07:44:49.338Z,24.36
2023-04-20T07:45:49.381Z,24.33
2023-04-20T07:46:49.409Z,24.30
2023-04-20T07:47:49.443Z,24.27
2023-04-20T07:48:49.757Z,24.22
2023-04-20T07:49:49.457Z,24.18
2023-04-20T07:50:49.469Z,24.16
2023-04-20T07:51:49.480Z,24.13
2023-04-20T07:52:49.497Z,24.09
2023-04-20T07:53:49.791Z,24.06
2023-04-20T07:54:49.607Z,24.03
2023-04-20T07:55:50.799Z,24.01
2023-04-20T07:56:49.605Z,23.98
2023-04-20T07:57:49.671Z,23.96
2023-04-20T07:58:49.702Z,23.93
2023-04-20T07:59:49.729Z,23.92
2023-04-20T08:00:49.794Z,23.90
2023-04-20T08:01:49.810Z,23.89
2023-04-20T08:02:49.964Z,23.89
2023-04-20T08:03:50.116Z,23.87
2023-04-20T08:04:50.264Z,23.86
2023-04-20T08:05:50.072Z,23.86
2023-04-20T08:06:50.041Z,23.85
2023-04-20T08:07:50.101Z,23.84
2023-04-20T08:08:50.124Z,23.83
2023-04-20T08:09:50.165Z,23.82
2023-04-20T08:10:50.211Z,23.82
2023-04-20T08:11:50.278Z,23.81
2023-04-20T08:12:52.583Z,23.80
2023-04-20T08:13:50.443Z,23.79
2023-04-20T08:14:50.450Z,23.78
2023-04-20T08:15:50.534Z,23.78
2023-04-20T08:16:50.609Z,23.76
2023-04-20T08:17:50.659Z,23.76
2023-04-20T08:18:50.712Z,23.76
2023-04-20T08:19:50.744Z,23.76
2023-04-20T08:20:50.833Z,23.75
2023-04-20T08:21:50.861Z,23.75
2023-04-20T08:22:50.938Z,23.74
2023-04-20T08:23:50.989Z,23.74
2023-04-20T08:24:51.014Z,23.73
2023-04-20T08:25:51.073Z,23.73
2023-04-20T08:26:51.150Z,23.72
2023-04-20T08:27:51.175Z,23.72
2023-04-20T08:28:51.250Z,23.71
2023-04-20T08:29:51.335Z,23.71
2023-04-20T08:30:51.371Z,23.71
2023-04-20T08:31:51.984Z,23.70
2023-04-20T08:32:51.592Z,23.70
2023-04-20T08:33:51.559Z,23.70
2023-04-20T08:34:51.638Z,23.70
2023-04-20T08:35:51.709Z,23.71
2023-04-20T08:36:51.751Z,23.69
2023-04-20T08:37:51.829Z,23.70
2023-04-20T08:38:52.275Z,23.71
2023-04-20T08:39:51.909Z,23.73
2023-04-20T08:40:51.960Z,23.73
2023-04-20T08:41:52.019Z,23.75
2023-04-20T08:42:52.058Z,23.76
2023-04-20T08:43:52.125Z,23.79
2023-04-20T08:44:52.151Z,23.82
2023-04-20T08:45:52.229Z,23.83
2023-04-20T08:46:52.273Z,23.84
2023-04-20T08:47:52.288Z,23.85
2023-04-20T08:48:52.364Z,23.86
2023-04-20T08:49:52.405Z,23.87
2023-04-20T08:50:52.415Z,23.87
2023-04-20T08:51:52.471Z,23.89
2023-04-20T08:52:52.485Z,23.90
2023-04-20T08:53:52.485Z,23.80
2023-04-20T08:54:56.468Z,23.54
2023-04-20T08:55:53.543Z,23.26
2023-04-20T08:56:52.515Z,22.99
2023-04-20T08:57:52.520Z,22.83
2023-04-20T08:58:52.830Z,22.77
2023-04-20T08:59:52.493Z,22.75
2023-04-20T09:00:52.477Z,22.74
2023-04-20T09:01:52.477Z,22.76
2023-04-20T09:02:52.614Z,22.79
2023-04-20T09:03:52.661Z,22.81
2023-04-20T09:04:52.676Z,22.84
2023-04-20T09:05:52.459Z,22.87
2023-04-20T09:06:52.463Z,22.90
2023-04-20T09:07:52.423Z,22.92
2023-04-20T09:08:52.444Z,22.94
2023-04-20T09:09:52.407Z,22.97
2023-04-20T09:10:52.423Z,22.99
2023-04-20T09:11:52.391Z,23.02
2023-04-20T09:12:52.469Z,23.02
2023-04-20T09:13:52.513Z,23.04
2023-04-20T09:14:52.580Z,23.05
2023-04-20T09:15:52.668Z,23.06
2023-04-20T09:16:52.796Z,23.08
2023-04-20T09:17:52.795Z,23.07
2023-04-20T09:18:52.872Z,23.08
2023-04-20T09:19:52.881Z,23.11
2023-04-20T09:20:52.927Z,23.11
2023-04-20T09:21:53.023Z,23.10
2023-04-20T09:22:53.062Z,23.08
2023-04-20T09:23:53.093Z,23.08
2023-04-20T09:24:53.160Z,23.06
2023-04-20T09:25:53.202Z,23.05
2023-04-20T09:26:53.267Z,23.05
2023-04-20T09:27:53.317Z,23.09
2023-04-20T09:28:53.374Z,23.14
2023-04-20T09:29:53.436Z,23.21
2023-04-20T09:30:53.472Z,23.27
2023-04-20T09:31:53.509Z,23.33
2023-04-20T09:32:53.507Z,23.39
2023-04-20T09:33:53.493Z,23.45
2023-04-20T09:34:53.826Z,23.52
2023-04-20T09:35:53.531Z,23.56
2023-04-20T09:36:53.561Z,23.62
2023-04-20T09:37:53.609Z,23.67
2023-04-20T09:38:53.720Z,23.71
2023-04-20T09:39:53.800Z,23.75
2023-04-20T09:40:53.806Z,23.79
2023-04-20T09:41:53.861Z,23.80
2023-04-20T09:42:53.915Z,23.83
2023-04-20T09:43:53.936Z,23.84
2023-04-20T09:44:54.329Z,23.86
2023-04-20T09:45:54.019Z,23.87
2023-04-20T09:46:54.075Z,23.89
2023-04-20T09:47:54.129Z,23.91
2023-04-20T09:48:54.145Z,23.94
2023-04-20T09:49:54.183Z,23.96
2023-04-20T09:50:54.235Z,23.97
2023-04-20T09:51:54.227Z,23.99
2023-04-20T09:52:54.368Z,24.00
2023-04-20T09:53:54.285Z,24.01
2023-04-20T09:54:54.318Z,24.02
2023-04-20T09:55:54.397Z,24.02
2023-04-20T09:56:54.378Z,24.02
2023-04-20T09:57:54.408Z,24.03
2023-04-20T09:58:54.416Z,24.04
2023-04-20T09:59:54.431Z,24.05
2023-04-20T10:00:54.512Z,24.06
2023-04-20T10:01:54.497Z,24.06
2023-04-20T10:02:54.644Z,24.08
2023-04-20T10:03:54.633Z,24.09
2023-04-20T10:04:54.559Z,24.11
2023-04-20T10:05:54.573Z,24.12
2023-04-20T10:06:54.599Z,24.13
2023-04-20T10:07:54.647Z,24.14
2023-04-20T10:08:54.628Z,24.15
2023-04-20T10:09:54.652Z,24.15
2023-04-20T10:10:54.701Z,24.16
2023-04-20T10:11:56.625Z,24.17
2023-04-20T10:12:54.702Z,24.18
2023-04-20T10:13:54.687Z,24.19
2023-04-20T10:14:54.723Z,24.21
2023-04-20T10:15:54.699Z,24.22
2023-04-20T10:16:54.719Z,24.24
2023-04-20T10:17:54.778Z,24.25
2023-04-20T10:18:54.728Z,24.25
2023-04-20T10:19:54.693Z,24.26
2023-04-20T10:20:54.652Z,24.26
2023-04-20T10:21:54.628Z,24.27
2023-04-20T10:22:54.649Z,24.27
2023-04-20T10:23:54.622Z,24.29
2023-04-20T10:24:54.608Z,24.30
2023-04-20T10:25:54.607Z,24.32
2023-04-20T10:26:54.625Z,24.33
2023-04-20T10:27:54.598Z,24.34
2023-04-20T10:28:54.594Z,24.35
2023-04-20T10:29:54.601Z,24.36
2023-04-20T10:30:54.695Z,24.37
2023-04-20T10:31:54.551Z,24.37
2023-04-20T10:32:54.603Z,24.38
2023-04-20T10:33:54.629Z,24.38
2023-04-20T10:34:54.616Z,24.38
2023-04-20T10:35:54.558Z,24.39
2023-04-20T10:36:54.527Z,24.39
2023-04-20T10:37:54.523Z,24.38
2023-04-20T10:38:54.498Z,24.37
2023-04-20T10:39:54.845Z,24.35
2023-04-20T10:40:54.587Z,24.33
2023-04-20T10:41:54.510Z,24.32
2023-04-20T10:42:54.507Z,24.31
2023-04-20T10:43:54.484Z,24.30
2023-04-20T10:44:54.531Z,24.29
2023-04-20T10:45:54.534Z,24.28
2023-04-20T10:46:54.549Z,24.25
2023-04-20T10:47:54.521Z,24.24
2023-04-20T10:48:54.469Z,24.23
2023-04-20T10:49:54.476Z,24.22
2023-04-20T10:50:54.447Z,24.21
2023-04-20T10:51:55.374Z,24.21
2023-04-20T10:52:54.404Z,24.20
2023-04-20T10:53:54.435Z,24.18
2023-04-20T10:54:54.414Z,24.18
2023-04-20T10:55:54.425Z,24.17
2023-04-20T10:56:54.439Z,24.16
2023-04-20T10:57:54.420Z,24.16
2023-04-20T10:58:54.366Z,24.15
2023-04-20T10:59:54.406Z,24.15
2023-04-20T11:00:54.348Z,24.14
2023-04-20T11:01:54.383Z,24.13
2023-04-20T11:02:54.422Z,24.12
2023-04-20T11:03:54.397Z,24.11
2023-04-20T11:04:54.378Z,24.13
2023-04-20T11:05:54.332Z,24.12
2023-04-20T11:06:54.349Z,24.11
2023-04-20T11:07:54.414Z,24.11
2023-04-20T11:08:54.306Z,24.10
2023-04-20T11:09:54.353Z,24.11
2023-04-20T11:10:54.323Z,24.09
2023-04-20T11:11:54.299Z,24.08
2023-04-20T11:12:54.327Z,24.07
2023-04-20T11:13:54.324Z,24.07
2023-04-20T11:14:54.287Z,24.06
2023-04-20T11:15:54.327Z,24.05
2023-04-20T11:16:54.890Z,24.05
2023-04-20T11:17:54.307Z,24.05
2023-04-20T11:18:54.225Z,24.05
2023-04-20T11:19:54.233Z,24.05
2023-04-20T11:20:54.247Z,24.03
2023-04-20T11:21:54.212Z,24.03
2023-04-20T11:22:54.881Z,24.03
2023-04-20T11:23:54.192Z,24.04
2023-04-20T11:24:54.198Z,24.03
2023-04-20T11:25:54.209Z,24.03
2023-04-20T11:26:54.209Z,24.03
2023-04-20T11:27:54.180Z,24.02
2023-04-20T11:28:55.883Z,24.02
2023-04-20T11:29:54.386Z,24.02
2023-04-20T11:30:54.145Z,24.01
2023-04-20T11:31:54.268Z,24.02
2023-04-20T11:32:54.211Z,24.02
2023-04-20T11:33:54.158Z,24.01
2023-04-20T11:35:03.338Z,24.02
2023-04-20T11:35:55.209Z,24.01
2023-04-20T11:36:54.183Z,24.02
2023-04-20T11:37:54.178Z,24.02
2023-04-20T11:38:54.153Z,24.02
2023-04-20T11:39:54.170Z,24.02
2023-04-20T11:40:54.178Z,24.03
2023-04-20T11:41:54.161Z,24.03
2023-04-20T11:42:54.151Z,24.02
2023-04-20T11:43:54.160Z,24.02
2023-04-20T11:44:54.129Z,24.03
2023-04-20T11:45:54.147Z,24.03
2023-04-20T11:46:54.124Z,24.03
2023-04-20T11:47:54.175Z,24.04
2023-04-20T11:48:54.198Z,24.03
2023-04-20T11:49:54.224Z,24.03
2023-04-20T11:50:54.226Z,24.03
2023-04-20T11:51:54.258Z,24.03
2023-04-20T11:52:54.292Z,24.03
2023-04-20T11:53:54.347Z,24.03
2023-04-20T11:54:54.370Z,24.03
2023-04-20T11:55:54.386Z,24.02
2023-04-20T11:56:54.403Z,24.02
2023-04-20T11:57:54.410Z,24.02
2023-04-20T11:58:54.472Z,24.01
2023-04-20T11:59:54.477Z,24.01
2023-04-20T12:00:54.486Z,24.01
2023-04-20T12:01:54.611Z,24.02
2023-04-20T12:02:54.720Z,24.02
2023-04-20T12:03:54.776Z,24.01
2023-04-20T12:04:54.709Z,24.02
2023-04-20T12:05:54.693Z,24.00
2023-04-20T12:06:54.714Z,24.00
2023-04-20T12:07:54.700Z,24.01
2023-04-20T12:08:54.770Z,24.01
2023-04-20T12:09:54.770Z,24.00
2023-04-20T12:10:56.751Z,24.01
2023-04-20T12:11:54.817Z,23.99
2023-04-20T12:12:54.766Z,23.99
2023-04-20T12:13:54.786Z,23.98
2023-04-20T12:14:54.750Z,23.99
2023-04-20T12:15:54.780Z,23.98
2023-04-20T12:16:56.764Z,23.98
2023-04-20T12:17:54.755Z,23.97
2023-04-20T12:18:54.825Z,23.98
2023-04-20T12:19:54.775Z,23.98
2023-04-20T12:20:54.703Z,23.98
2023-04-20T12:21:54.709Z,23.97
2023-04-20T12:22:55.630Z,23.98
2023-04-20T12:23:54.695Z,23.98
2023-04-20T12:24:54.740Z,23.97
2023-04-20T12:25:54.741Z,23.98
2023-04-20T12:26:54.778Z,23.98
2023-04-20T12:27:54.801Z,23.97
2023-04-20T12:28:54.844Z,23.98
2023-04-20T12:29:54.880Z,23.97
2023-04-20T12:30:54.964Z,23.97
2023-04-20T12:31:55.077Z,23.97
2023-04-20T12:32:54.995Z,23.97
2023-04-20T12:33:54.994Z,23.96
2023-04-20T12:34:55.016Z,23.96
2023-04-20T12:35:55.016Z,23.96
2023-04-20T12:36:55.080Z,23.97
2023-04-20T12:37:55.106Z,23.96
2023-04-20T12:38:55.124Z,23.97
2023-04-20T12:39:55.183Z,23.96
2023-04-20T12:40:55.209Z,23.96
2023-04-20T12:41:55.266Z,23.96
2023-04-20T12:42:55.257Z,23.95
2023-04-20T12:43:55.302Z,23.95
2023-04-20T12:44:55.332Z,23.96
2023-04-20T12:45:55.319Z,23.96
2023-04-20T12:46:55.415Z,23.96
2023-04-20T12:47:57.256Z,23.96
2023-04-20T12:48:55.433Z,23.95
2023-04-20T12:49:55.398Z,23.96
2023-04-20T12:50:55.369Z,23.97
2023-04-20T12:51:55.415Z,23.96
2023-04-20T12:52:55.360Z,23.96